Language: 


Des rapports , des résumés tant et plus, au choix de chacun....


Données Historiques de Météogheer
Journalier Rapport pour Février 20, 2017 Unitée:  Les deux    Impériale   Métrique
Suivant Jour »
Journalier Hebdomadaire Mensuel Annuel Sur mesure
  Max: Min: Moyenne:
Température: 54 °F /  12.2 °C 47.1 °F /  8.4 °C 50 °F /  10 °C
Point de rosée: 52.5 °F /  11.4 °C 45.9 °F /  7.7 °C 49.1 °F /  9.5 °C
Humidité: 98% 95% 97%
Vent: 23.5mph /  37.8km/h - 10.3mph /  16.5km/h
Rafales: 23.7mph /  38.1km/h - -
Vent- - WSW
Pression: 30.2 in /  1021.9 hPa 30 in /  1016.1 hPa -
Pluie: 0 in /  0.0 mm    
Historical Graphs
 
 
Données tabulaires pour Février 20, 2017
Heure Température Point de rosée Pression Vent Vent Rafales Humidité Pluie Taux (Horaire) Conditions
00:03 47.1 °F /  8.4 °C 45.9 °F /  7.7 °C 30.2in /  1020.9hPa WSW 5.4mph /  8.7km/h 7.6mph /  12.2km/h 95% 0in /  0.0mm
00:08 47.1 °F /  8.4 °C 45.9 °F /  7.7 °C 30.2in /  1021.9hPa WSW 5.8mph /  9.3km/h 7.6mph /  12.2km/h 95% 0in /  0.0mm
00:13 47.1 °F /  8.4 °C 45.9 °F /  7.7 °C 30.2in /  1021.9hPa SSW 3.4mph /  5.5km/h 7.4mph /  11.9km/h 95% 0in /  0.0mm
00:18 47.1 °F /  8.4 °C 45.9 °F /  7.7 °C 30.2in /  1021.9hPa SW 4.3mph /  6.9km/h 6.5mph /  10.5km/h 95% 0in /  0.0mm
00:23 47.1 °F /  8.4 °C 45.9 °F /  7.7 °C 30.2in /  1020.9hPa SW 6mph /  9.7km/h 6mph /  9.7km/h 95% 0in /  0.0mm
00:28 47.3 °F /  8.5 °C 46.2 °F /  7.9 °C 30.2in /  1020.9hPa WSW 4.9mph /  7.9km/h 6.5mph /  10.5km/h 96% 0in /  0.0mm
00:33 47.3 °F /  8.5 °C 46.2 °F /  7.9 °C 30.2in /  1020.9hPa WSW 3.8mph /  6.1km/h 7.2mph /  11.6km/h 96% 0in /  0.0mm
00:38 47.3 °F /  8.5 °C 46.2 °F /  7.9 °C 30.2in /  1020.9hPa WSW 5.4mph /  8.7km/h 7.2mph /  11.6km/h 96% 0in /  0.0mm
00:43 47.3 °F /  8.5 °C 46.2 °F /  7.9 °C 30.2in /  1020.9hPa SSW 4.9mph /  7.9km/h 6.5mph /  10.5km/h 96% 0in /  0.0mm
00:48 47.3 °F /  8.5 °C 46.2 °F /  7.9 °C 30.2in /  1020.9hPa SW 5.6mph /  9.0km/h 7.8mph /  12.6km/h 96% 0in /  0.0mm
00:53 47.3 °F /  8.5 °C 46.2 °F /  7.9 °C 30.2in /  1020.9hPa WSW 5.4mph /  8.7km/h 7.8mph /  12.6km/h 96% 0in /  0.0mm
00:58 47.5 °F /  8.6 °C 46.4 °F /  8.0 °C 30.2in /  1020.9hPa WSW 5.8mph /  9.3km/h 7.4mph /  11.9km/h 96% 0in /  0.0mm
01:03 47.5 °F /  8.6 °C 46.4 °F /  8.0 °C 30.2in /  1020.9hPa SSW 4.9mph /  7.9km/h 6mph /  9.7km/h 96% 0in /  0.0mm
01:08 47.5 °F /  8.6 °C 46.4 °F /  8.0 °C 30.1in /  1019.9hPa SW 5.6mph /  9.0km/h 6.5mph /  10.5km/h 96% 0in /  0.0mm
01:13 47.5 °F /  8.6 °C 46.4 °F /  8.0 °C 30.1in /  1019.9hPa WSW 4.5mph /  7.2km/h 6.9mph /  11.1km/h 96% 0in /  0.0mm
01:18 47.7 °F /  8.7 °C 46.6 °F /  8.1 °C 30.1in /  1019.9hPa SW 6.5mph /  10.5km/h 7.2mph /  11.6km/h 96% 0in /  0.0mm
01:23 47.7 °F /  8.7 °C 46.6 °F /  8.1 °C 30.1in /  1019.9hPa SW 5.8mph /  9.3km/h 7.4mph /  11.9km/h 96% 0in /  0.0mm
01:28 47.7 °F /  8.7 °C 46.6 °F /  8.1 °C 30.1in /  1019.9hPa WSW 4.5mph /  7.2km/h 7.4mph /  11.9km/h 96% 0in /  0.0mm
01:33 47.7 °F /  8.7 °C 46.6 °F /  8.1 °C 30.1in /  1019.9hPa WSW 4.7mph /  7.6km/h 6.9mph /  11.1km/h 96% 0in /  0.0mm
01:38 47.7 °F /  8.7 °C 46.6 °F /  8.1 °C 30.1in /  1019.9hPa WSW 4.3mph /  6.9km/h 6.5mph /  10.5km/h 96% 0in /  0.0mm
01:43 47.7 °F /  8.7 °C 46.6 °F /  8.1 °C 30.1in /  1019.9hPa WSW 4.7mph /  7.6km/h 6.3mph /  10.1km/h 96% 0in /  0.0mm
01:48 47.7 °F /  8.7 °C 46.6 °F /  8.1 °C 30.1in /  1019.9hPa WSW 4.9mph /  7.9km/h 6.3mph /  10.1km/h 96% 0in /  0.0mm
01:53 47.7 °F /  8.7 °C 46.6 °F /  8.1 °C 30.2in /  1020.9hPa SW 5.6mph /  9.0km/h 7.4mph /  11.9km/h 96% 0in /  0.0mm
01:58 47.7 °F /  8.7 °C 46.6 °F /  8.1 °C 30.2in /  1020.9hPa WSW 4.9mph /  7.9km/h 7.4mph /  11.9km/h 96% 0in /  0.0mm
02:03 47.5 °F /  8.6 °C 46.4 °F /  8.0 °C 30.2in /  1020.9hPa SW 6.3mph /  10.1km/h 6.9mph /  11.1km/h 96% 0in /  0.0mm
02:08 47.5 °F /  8.6 °C 46.4 °F /  8.0 °C 30.2in /  1020.9hPa SW 5.8mph /  9.3km/h 9.4mph /  15.1km/h 96% 0in /  0.0mm
02:13 47.5 °F /  8.6 °C 46.4 °F /  8.0 °C 30.2in /  1020.9hPa WSW 7.6mph /  12.2km/h 9.4mph /  15.1km/h 96% 0in /  0.0mm
02:18 47.5 °F /  8.6 °C 46.4 °F /  8.0 °C 30.2in /  1020.9hPa WSW 6.3mph /  10.1km/h 7.6mph /  12.2km/h 96% 0in /  0.0mm
02:23 47.5 °F /  8.6 °C 46.4 °F /  8.0 °C 30.2in /  1020.9hPa WSW 4.9mph /  7.9km/h 6.5mph /  10.5km/h 96% 0in /  0.0mm
02:28 47.5 °F /  8.6 °C 46.8 °F /  8.2 °C 30.2in /  1020.9hPa SW 6.3mph /  10.1km/h 7.6mph /  12.2km/h 97% 0in /  0.0mm
02:33 47.5 °F /  8.6 °C 46.8 °F /  8.2 °C 30.2in /  1020.9hPa WSW 4.7mph /  7.6km/h 7.6mph /  12.2km/h 97% 0in /  0.0mm
02:39 47.5 °F /  8.6 °C 46.8 °F /  8.2 °C 30.2in /  1020.9hPa SSW 5.6mph /  9.0km/h 7.2mph /  11.6km/h 97% 0in /  0.0mm
02:44 47.5 °F /  8.6 °C 46.8 °F /  8.2 °C 30.2in /  1020.9hPa SW 5.4mph /  8.7km/h 7.2mph /  11.6km/h 97% 0in /  0.0mm
02:49 47.5 °F /  8.6 °C 46.8 °F /  8.2 °C 30.2in /  1020.9hPa SW 5.4mph /  8.7km/h 6.5mph /  10.5km/h 97% 0in /  0.0mm
02:54 47.7 °F /  8.7 °C 46.9 °F /  8.3 °C 30.1in /  1019.9hPa SSW 4.9mph /  7.9km/h 7.2mph /  11.6km/h 97% 0in /  0.0mm
02:59 47.7 °F /  8.7 °C 46.9 °F /  8.3 °C 30.1in /  1019.9hPa WSW 4.3mph /  6.9km/h 7.2mph /  11.6km/h 97% 0in /  0.0mm
03:04 47.7 °F /  8.7 °C 46.9 °F /  8.3 °C 30.1in /  1019.9hPa WSW 6mph /  9.7km/h 7.2mph /  11.6km/h 97% 0in /  0.0mm
03:09 47.7 °F /  8.7 °C 46.9 °F /  8.3 °C 30.1in /  1019.9hPa WSW 5.8mph /  9.3km/h 8.5mph /  13.7km/h 97% 0in /  0.0mm
03:14 47.7 °F /  8.7 °C 46.9 °F /  8.3 °C 30.1in /  1019.9hPa WSW 6.3mph /  10.1km/h 8.7mph /  14.0km/h 97% 0in /  0.0mm
03:19 47.8 °F /  8.8 °C 47.1 °F /  8.4 °C 30.1in /  1019.9hPa WSW 5.8mph /  9.3km/h 8.7mph /  14.0km/h 97% 0in /  0.0mm
03:24 47.8 °F /  8.8 °C 47.1 °F /  8.4 °C 30.1in /  1019.9hPa SW 5.6mph /  9.0km/h 8.5mph /  13.7km/h 97% 0in /  0.0mm
03:29 47.8 °F /  8.8 °C 47.1 °F /  8.4 °C 30.1in /  1019.9hPa SW 8.7mph /  14.0km/h 8.7mph /  14.0km/h 97% 0in /  0.0mm
03:34 47.8 °F /  8.8 °C 47.1 °F /  8.4 °C 30.1in /  1019.9hPa WSW 6.5mph /  10.5km/h 8.7mph /  14.0km/h 97% 0in /  0.0mm
03:39 47.8 °F /  8.8 °C 47.1 °F /  8.4 °C 30.1in /  1018.8hPa WSW 8.7mph /  14.0km/h 8.7mph /  14.0km/h 97% 0in /  0.0mm
03:44 47.8 °F /  8.8 °C 47.1 °F /  8.4 °C 30.1in /  1018.8hPa WSW 7.6mph /  12.2km/h 9.8mph /  15.8km/h 97% 0in /  0.0mm
03:49 47.8 °F /  8.8 °C 47.1 °F /  8.4 °C 30.1in /  1018.8hPa WSW 7.4mph /  11.9km/h 10.1mph /  16.3km/h 97% 0in /  0.0mm
03:54 47.8 °F /  8.8 °C 47.1 °F /  8.4 °C 30.1in /  1018.8hPa WSW 7.2mph /  11.6km/h 12.3mph /  19.8km/h 97% 0in /  0.0mm
03:59 47.8 °F /  8.8 °C 47.1 °F /  8.4 °C 30.1in /  1018.8hPa WSW 7.8mph /  12.6km/h 12.3mph /  19.8km/h 97% 0in /  0.0mm
04:04 47.8 °F /  8.8 °C 47.1 °F /  8.4 °C 30.1in /  1018.8hPa WSW 11.4mph /  18.3km/h 12.8mph /  20.6km/h 97% 0in /  0.0mm
04:09 47.8 °F /  8.8 °C 47.1 °F /  8.4 °C 30.1in /  1018.8hPa WSW 11.2mph /  18.0km/h 12.8mph /  20.6km/h 97% 0in /  0.0mm
04:14 47.8 °F /  8.8 °C 47.1 °F /  8.4 °C 30.1in /  1018.8hPa West 7.8mph /  12.6km/h 12.1mph /  19.5km/h 97% 0in /  0.0mm
04:19 47.8 °F /  8.8 °C 47.1 °F /  8.4 °C 30.1in /  1018.8hPa WSW 10.5mph /  16.9km/h 11mph /  17.7km/h 97% 0in /  0.0mm
04:24 47.8 °F /  8.8 °C 47.1 °F /  8.4 °C 30.1in /  1018.8hPa West 7.4mph /  11.9km/h 12.3mph /  19.8km/h 97% 0in /  0.0mm
04:29 47.7 °F /  8.7 °C 47.1 °F /  8.4 °C 30.1in /  1018.8hPa WSW 7.4mph /  11.9km/h 12.3mph /  19.8km/h 98% 0in /  0.0mm
04:34 47.7 °F /  8.7 °C 47.1 °F /  8.4 °C 30.1in /  1018.8hPa WSW 8.5mph /  13.7km/h 11mph /  17.7km/h 98% 0in /  0.0mm
04:39 47.7 °F /  8.7 °C 47.1 °F /  8.4 °C 30.1in /  1018.8hPa WSW 10.1mph /  16.3km/h 11mph /  17.7km/h 98% 0in /  0.0mm
04:44 47.7 °F /  8.7 °C 47.1 °F /  8.4 °C 30.1in /  1018.8hPa SW 7.8mph /  12.6km/h 10.1mph /  16.3km/h 98% 0in /  0.0mm
04:49 47.7 °F /  8.7 °C 47.1 °F /  8.4 °C 30.1in /  1018.8hPa WSW 6.3mph /  10.1km/h 9.8mph /  15.8km/h 98% 0in /  0.0mm
04:54 47.7 °F /  8.7 °C 47.1 °F /  8.4 °C 30.1in /  1018.8hPa WSW 7.2mph /  11.6km/h 9.6mph /  15.4km/h 98% 0in /  0.0mm
04:59 47.5 °F /  8.6 °C 46.9 °F /  8.3 °C 30.1in /  1018.8hPa SW 7.6mph /  12.2km/h 9.8mph /  15.8km/h 98% 0in /  0.0mm
05:04 47.7 °F /  8.7 °C 47.1 °F /  8.4 °C 30.1in /  1018.8hPa WSW 8.5mph /  13.7km/h 12.1mph /  19.5km/h 98% 0in /  0.0mm
05:09 47.7 °F /  8.7 °C 47.1 °F /  8.4 °C 30.1in /  1018.8hPa WSW 8.5mph /  13.7km/h 12.5mph /  20.1km/h 98% 0in /  0.0mm
05:14 47.5 °F /  8.6 °C 46.9 °F /  8.3 °C 30.1in /  1018.8hPa WSW 5.6mph /  9.0km/h 12.5mph /  20.1km/h 98% 0in /  0.0mm
05:19 47.5 °F /  8.6 °C 46.9 °F /  8.3 °C 30.1in /  1018.8hPa WSW 6mph /  9.7km/h 9.6mph /  15.4km/h 98% 0in /  0.0mm
05:24 47.5 °F /  8.6 °C 46.9 °F /  8.3 °C 30.1in /  1018.8hPa WSW 7.6mph /  12.2km/h 9.4mph /  15.1km/h 98% 0in /  0.0mm
05:29 47.5 °F /  8.6 °C 46.9 °F /  8.3 °C 30.1in /  1018.8hPa SW 7.8mph /  12.6km/h 9.4mph /  15.1km/h 98% 0in /  0.0mm
05:34 47.5 °F /  8.6 °C 46.9 °F /  8.3 °C 30.1in /  1018.8hPa WSW 7.6mph /  12.2km/h 9.2mph /  14.8km/h 98% 0in /  0.0mm
05:39 47.5 °F /  8.6 °C 46.9 °F /  8.3 °C 30.1in /  1018.8hPa WSW 10.5mph /  16.9km/h 10.5mph /  16.9km/h 98% 0in /  0.0mm
05:44 47.5 °F /  8.6 °C 46.9 °F /  8.3 °C 30.1in /  1018.8hPa WSW 8.1mph /  13.0km/h 10.5mph /  16.9km/h 98% 0in /  0.0mm
05:49 47.5 °F /  8.6 °C 46.9 °F /  8.3 °C 30.1in /  1018.8hPa WSW 7.6mph /  12.2km/h 10.5mph /  16.9km/h 98% 0in /  0.0mm
05:54 47.5 °F /  8.6 °C 46.9 °F /  8.3 °C 30.1in /  1018.8hPa SSW 7.8mph /  12.6km/h 11.9mph /  19.1km/h 98% 0in /  0.0mm
05:59 47.7 °F /  8.7 °C 47.1 °F /  8.4 °C 30.1in /  1018.8hPa SW 8.7mph /  14.0km/h 11.9mph /  19.1km/h 98% 0in /  0.0mm
06:04 47.7 °F /  8.7 °C 47.1 °F /  8.4 °C 30.1in /  1018.8hPa WSW 5.8mph /  9.3km/h 10.1mph /  16.3km/h 98% 0in /  0.0mm
06:09 47.7 °F /  8.7 °C 47.1 °F /  8.4 °C 30.1in /  1018.8hPa WSW 6.3mph /  10.1km/h 10.5mph /  16.9km/h 98% 0in /  0.0mm
06:12 47.7 °F /  8.7 °C 47.1 °F /  8.4 °C 30.1in /  1018.8hPa WSW 7.6mph /  12.2km/h 10.5mph /  16.9km/h 98% 0in /  0.0mm
06:17 47.7 °F /  8.7 °C 47.1 °F /  8.4 °C 30.1in /  1018.8hPa WSW 7.8mph /  12.6km/h 8.5mph /  13.7km/h 98% 0in /  0.0mm
06:22 47.7 °F /  8.7 °C 47.1 °F /  8.4 °C 30.1in /  1018.8hPa WSW 4.9mph /  7.9km/h 8.5mph /  13.7km/h 98% 0in /  0.0mm
06:27 47.5 °F /  8.6 °C 46.9 °F /  8.3 °C 30.1in /  1018.8hPa WSW 7.2mph /  11.6km/h 8.5mph /  13.7km/h 98% 0in /  0.0mm
06:32 47.5 °F /  8.6 °C 46.9 °F /  8.3 °C 30.1in /  1018.8hPa SSW 8.1mph /  13.0km/h 8.1mph /  13.0km/h 98% 0in /  0.0mm
06:37 47.5 °F /  8.6 °C 46.9 °F /  8.3 °C 30.1in /  1018.8hPa SW 5.6mph /  9.0km/h 8.1mph /  13.0km/h 98% 0in /  0.0mm
06:42 47.5 °F /  8.6 °C 46.9 °F /  8.3 °C 30.1in /  1018.8hPa SSW 7.8mph /  12.6km/h 8.7mph /  14.0km/h 98% 0in /  0.0mm
06:47 47.7 °F /  8.7 °C 47.1 °F /  8.4 °C 30.1in /  1018.8hPa SW 6.5mph /  10.5km/h 8.7mph /  14.0km/h 98% 0in /  0.0mm
06:52 47.7 °F /  8.7 °C 47.1 °F /  8.4 °C 30.1in /  1018.8hPa SSW 6mph /  9.7km/h 8.1mph /  13.0km/h 98% 0in /  0.0mm
06:57 47.7 °F /  8.7 °C 47.1 °F /  8.4 °C 30.1in /  1018.8hPa SSW 4.9mph /  7.9km/h 7.6mph /  12.2km/h 98% 0in /  0.0mm
06:59 47.7 °F /  8.7 °C 47.1 °F /  8.4 °C 30.1in /  1018.8hPa WSW 5.4mph /  8.7km/h 7.4mph /  11.9km/h 98% 0in /  0.0mm
07:04 47.7 °F /  8.7 °C 47.1 °F /  8.4 °C 30.1in /  1018.8hPa SW 5.8mph /  9.3km/h 8.1mph /  13.0km/h 98% 0in /  0.0mm
07:09 47.7 °F /  8.7 °C 47.1 °F /  8.4 °C 30.1in /  1018.8hPa SW 5.8mph /  9.3km/h 8.1mph /  13.0km/h 98% 0in /  0.0mm
07:14 47.8 °F /  8.8 °C 47.3 °F /  8.5 °C 30.1in /  1018.8hPa SW 4.7mph /  7.6km/h 6.5mph /  10.5km/h 98% 0in /  0.0mm
07:19 47.8 °F /  8.8 °C 47.3 °F /  8.5 °C 30.1in /  1018.8hPa WSW 4.9mph /  7.9km/h 7.2mph /  11.6km/h 98% 0in /  0.0mm
07:24 47.8 °F /  8.8 °C 47.3 °F /  8.5 °C 30.1in /  1018.2hPa WSW 4.5mph /  7.2km/h 9.6mph /  15.4km/h 98% 0in /  0.0mm
07:29 47.8 °F /  8.8 °C 47.3 °F /  8.5 °C 30.1in /  1018.2hPa SW 7.2mph /  11.6km/h 9.8mph /  15.8km/h 98% 0in /  0.0mm
07:34 47.8 °F /  8.8 °C 47.3 °F /  8.5 °C 30.1in /  1018.2hPa SW 4.9mph /  7.9km/h 9.8mph /  15.8km/h 98% 0in /  0.0mm
07:39 47.8 °F /  8.8 °C 47.3 °F /  8.5 °C 30.1in /  1018.8hPa WSW 8.1mph /  13.0km/h 8.9mph /  14.3km/h 98% 0in /  0.0mm
07:44 47.8 °F /  8.8 °C 47.3 °F /  8.5 °C 30.1in /  1018.8hPa WSW 7.6mph /  12.2km/h 8.9mph /  14.3km/h 98% 0in /  0.0mm
07:49 47.8 °F /  8.8 °C 47.3 °F /  8.5 °C 30.1in /  1018.8hPa WSW 7.8mph /  12.6km/h 10.7mph /  17.2km/h 98% 0in /  0.0mm
07:54 47.8 °F /  8.8 °C 47.3 °F /  8.5 °C 30.1in /  1018.2hPa SSW 6.5mph /  10.5km/h 10.7mph /  17.2km/h 98% 0in /  0.0mm
07:59 47.8 °F /  8.8 °C 47.3 °F /  8.5 °C 30.1in /  1018.2hPa WSW 8.1mph /  13.0km/h 10.3mph /  16.6km/h 98% 0in /  0.0mm
08:04 48 °F /  8.9 °C 47.5 °F /  8.6 °C 30.1in /  1018.2hPa WSW 7.8mph /  12.6km/h 10.3mph /  16.6km/h 98% 0in /  0.0mm
08:09 48 °F /  8.9 °C 47.5 °F /  8.6 °C 30.1in /  1018.8hPa WSW 8.5mph /  13.7km/h 10.5mph /  16.9km/h 98% 0in /  0.0mm
08:14 48 °F /  8.9 °C 47.5 °F /  8.6 °C 30.1in /  1018.8hPa WSW 6.5mph /  10.5km/h 12.3mph /  19.8km/h 98% 0in /  0.0mm
08:19 48.2 °F /  9.0 °C 47.7 °F /  8.7 °C 30.1in /  1018.8hPa WSW 10.1mph /  16.3km/h 12.3mph /  19.8km/h 98% 0in /  0.0mm
08:24 48.2 °F /  9.0 °C 47.7 °F /  8.7 °C 30.1in /  1018.2hPa WSW 9.8mph /  15.8km/h 12.8mph /  20.6km/h 98% 0in /  0.0mm
08:29 48.4 °F /  9.1 °C 47.8 °F /  8.8 °C 30.1in /  1018.2hPa WSW 10.5mph /  16.9km/h 12.8mph /  20.6km/h 98% 0in /  0.0mm
08:34 48.4 °F /  9.1 °C 47.8 °F /  8.8 °C 30.1in /  1018.2hPa WSW 7.2mph /  11.6km/h 11.2mph /  18.0km/h 98% 0in /  0.0mm
08:39 48.4 °F /  9.1 °C 47.8 °F /  8.8 °C 30.1in /  1018.8hPa WSW 10.7mph /  17.2km/h 12.3mph /  19.8km/h 98% 0in /  0.0mm
08:44 48.4 °F /  9.1 °C 47.8 °F /  8.8 °C 30.1in /  1018.8hPa WSW 7.4mph /  11.9km/h 12.8mph /  20.6km/h 98% 0in /  0.0mm
08:49 48.4 °F /  9.1 °C 47.8 °F /  8.8 °C 30.1in /  1018.8hPa WSW 10.7mph /  17.2km/h 12.8mph /  20.6km/h 98% 0in /  0.0mm
08:54 48.6 °F /  9.2 °C 48 °F /  8.9 °C 30.1in /  1018.8hPa WSW 10.3mph /  16.6km/h 12.8mph /  20.6km/h 98% 0in /  0.0mm
08:59 48.6 °F /  9.2 °C 48 °F /  8.9 °C 30.1in /  1018.8hPa WSW 9.8mph /  15.8km/h 13.2mph /  21.2km/h 98% 0in /  0.0mm
09:04 48.7 °F /  9.3 °C 48.2 °F /  9.0 °C 30.1in /  1018.8hPa WSW 9.6mph /  15.4km/h 13.4mph /  21.6km/h 98% 0in /  0.0mm
09:09 48.7 °F /  9.3 °C 48.2 °F /  9.0 °C 30.1in /  1018.8hPa WSW 8.1mph /  13.0km/h 13.4mph /  21.6km/h 98% 0in /  0.0mm
09:14 48.7 °F /  9.3 °C 48.2 °F /  9.0 °C 30.1in /  1018.8hPa WSW 9.6mph /  15.4km/h 13mph /  20.9km/h 98% 0in /  0.0mm
09:19 48.9 °F /  9.4 °C 48.4 °F /  9.1 °C 30.1in /  1018.8hPa WSW 7.8mph /  12.6km/h 13mph /  20.9km/h 98% 0in /  0.0mm
09:24 49.1 °F /  9.5 °C 48.6 °F /  9.2 °C 30.1in /  1018.8hPa WSW 8.7mph /  14.0km/h 13mph /  20.9km/h 98% 0in /  0.0mm
09:29 49.1 °F /  9.5 °C 48.6 °F /  9.2 °C 30.1in /  1018.8hPa WSW 7.6mph /  12.2km/h 13mph /  20.9km/h 98% 0in /  0.0mm
09:34 49.1 °F /  9.5 °C 48.6 °F /  9.2 °C 30.1in /  1018.8hPa WSW 12.1mph /  19.5km/h 12.3mph /  19.8km/h 98% 0in /  0.0mm
09:39 49.3 °F /  9.6 °C 48.7 °F /  9.3 °C 30.1in /  1018.8hPa WSW 8.1mph /  13.0km/h 13.6mph /  21.9km/h 98% 0in /  0.0mm
09:44 49.3 °F /  9.6 °C 48.7 °F /  9.3 °C 30.1in /  1018.8hPa West 8.9mph /  14.3km/h 14.5mph /  23.3km/h 98% 0in /  0.0mm
09:49 49.5 °F /  9.7 °C 48.9 °F /  9.4 °C 30.1in /  1018.8hPa West 12.3mph /  19.8km/h 14.5mph /  23.3km/h 98% 0in /  0.0mm
09:54 49.5 °F /  9.7 °C 48.9 °F /  9.4 °C 30.1in /  1018.8hPa WSW 13.2mph /  21.2km/h 13.2mph /  21.2km/h 98% 0in /  0.0mm
09:59 49.6 °F /  9.8 °C 49.1 °F /  9.5 °C 30.1in /  1018.8hPa WSW 8.1mph /  13.0km/h 15.2mph /  24.5km/h 98% 0in /  0.0mm
10:04 49.6 °F /  9.8 °C 49.1 °F /  9.5 °C 30.1in /  1018.8hPa WSW 10.7mph /  17.2km/h 15.2mph /  24.5km/h 98% 0in /  0.0mm
10:09 49.8 °F /  9.9 °C 49.3 °F /  9.6 °C 30.1in /  1018.2hPa WSW 8.1mph /  13.0km/h 13.6mph /  21.9km/h 98% 0in /  0.0mm
10:14 49.8 °F /  9.9 °C 49.3 °F /  9.6 °C 30.1in /  1018.2hPa WSW 12.8mph /  20.6km/h 13.6mph /  21.9km/h 98% 0in /  0.0mm
10:19 49.8 °F /  9.9 °C 49.3 °F /  9.6 °C 30.1in /  1018.2hPa WSW 8.1mph /  13.0km/h 13.4mph /  21.6km/h 98% 0in /  0.0mm
10:24 50 °F /  10.0 °C 49.5 °F /  9.7 °C 30.1in /  1018.2hPa WSW 8.5mph /  13.7km/h 14.8mph /  23.8km/h 98% 0in /  0.0mm
10:29 50.2 °F /  10.1 °C 49.6 °F /  9.8 °C 30.1in /  1018.2hPa WSW 15.4mph /  24.8km/h 19.5mph /  31.4km/h 98% 0in /  0.0mm
10:34 50.2 °F /  10.1 °C 49.6 °F /  9.8 °C 30.1in /  1018.2hPa WSW 11mph /  17.7km/h 19.5mph /  31.4km/h 98% 0in /  0.0mm
10:39 50.2 °F /  10.1 °C 49.6 °F /  9.8 °C 30.1in /  1018.2hPa WSW 14.3mph /  23.0km/h 17.7mph /  28.5km/h 98% 0in /  0.0mm
10:44 50.2 °F /  10.1 °C 49.6 °F /  9.8 °C 30.1in /  1018.2hPa West 13.2mph /  21.2km/h 15.7mph /  25.3km/h 98% 0in /  0.0mm
10:49 50.2 °F /  10.1 °C 49.6 °F /  9.8 °C 30.1in /  1018.2hPa WSW 10.3mph /  16.6km/h 15.7mph /  25.3km/h 98% 0in /  0.0mm
10:54 50.4 °F /  10.2 °C 49.8 °F /  9.9 °C 30.1in /  1018.8hPa WSW 14.8mph /  23.8km/h 17mph /  27.4km/h 98% 0in /  0.0mm
10:59 50.4 °F /  10.2 °C 49.8 °F /  9.9 °C 30.1in /  1018.8hPa WSW 14.3mph /  23.0km/h 18.6mph /  29.9km/h 98% 0in /  0.0mm
11:04 50.4 °F /  10.2 °C 49.8 °F /  9.9 °C 30.1in /  1018.8hPa West 9.8mph /  15.8km/h 18.6mph /  29.9km/h 98% 0in /  0.0mm
11:09 50.4 °F /  10.2 °C 49.8 °F /  9.9 °C 30.1in /  1018.8hPa West 8.7mph /  14.0km/h 18.6mph /  29.9km/h 98% 0in /  0.0mm
11:14 50.4 °F /  10.2 °C 49.8 °F /  9.9 °C 30.1in /  1018.8hPa West 13.2mph /  21.2km/h 18.6mph /  29.9km/h 98% 0in /  0.0mm
11:19 50.4 °F /  10.2 °C 49.5 °F /  9.7 °C 30.1in /  1018.8hPa WSW 14.5mph /  23.3km/h 15.2mph /  24.5km/h 97% 0in /  0.0mm
11:24 50.4 °F /  10.2 °C 49.5 °F /  9.7 °C 30.1in /  1018.8hPa West 8.1mph /  13.0km/h 15.4mph /  24.8km/h 97% 0in /  0.0mm
11:29 50.5 °F /  10.3 °C 49.6 °F /  9.8 °C 30.1in /  1018.8hPa West 10.5mph /  16.9km/h 15.4mph /  24.8km/h 97% 0in /  0.0mm
11:34 50.5 °F /  10.3 °C 49.6 °F /  9.8 °C 30.1in /  1018.8hPa WSW 10.1mph /  16.3km/h 20.6mph /  33.1km/h 97% 0in /  0.0mm
11:39 50.5 °F /  10.3 °C 49.6 °F /  9.8 °C 30.1in /  1018.8hPa WSW 10.7mph /  17.2km/h 20.6mph /  33.1km/h 97% 0in /  0.0mm
11:44 50.7 °F /  10.4 °C 49.8 °F /  9.9 °C 30.1in /  1018.8hPa WSW 10.7mph /  17.2km/h 12.8mph /  20.6km/h 97% 0in /  0.0mm
11:49 50.7 °F /  10.4 °C 49.8 °F /  9.9 °C 30.1in /  1018.8hPa West 12.8mph /  20.6km/h 14.1mph /  22.7km/h 97% 0in /  0.0mm
11:54 50.9 °F /  10.5 °C 50.2 °F /  10.1 °C 30.1in /  1018.8hPa WSW 10.1mph /  16.3km/h 14.5mph /  23.3km/h 97% 0in /  0.0mm
11:59 51.1 °F /  10.6 °C 50.2 °F /  10.1 °C 30.1in /  1018.8hPa West 11.9mph /  19.1km/h 14.5mph /  23.3km/h 97% 0in /  0.0mm
12:04 51.1 °F /  10.6 °C 50.2 °F /  10.1 °C 30.1in /  1018.8hPa West 10.7mph /  17.2km/h 16.3mph /  26.2km/h 97% 0in /  0.0mm
12:09 51.1 °F /  10.6 °C 50.2 °F /  10.1 °C 30.1in /  1018.8hPa WSW 14.8mph /  23.8km/h 16.3mph /  26.2km/h 97% 0in /  0.0mm
12:14 51.3 °F /  10.7 °C 50.4 °F /  10.2 °C 30.1in /  1018.8hPa West 10.3mph /  16.6km/h 17.4mph /  28.0km/h 97% 0in /  0.0mm
12:19 51.4 °F /  10.8 °C 50.5 °F /  10.3 °C 30.1in /  1018.8hPa WSW 10.7mph /  17.2km/h 17.7mph /  28.5km/h 97% 0in /  0.0mm
12:24 51.4 °F /  10.8 °C 50.5 °F /  10.3 °C 30.1in /  1018.2hPa WSW 12.8mph /  20.6km/h 17.7mph /  28.5km/h 97% 0in /  0.0mm
12:29 51.6 °F /  10.9 °C 50.7 °F /  10.4 °C 30.1in /  1018.2hPa West 7.8mph /  12.6km/h 15.4mph /  24.8km/h 97% 0in /  0.0mm
12:34 51.8 °F /  11.0 °C 50.9 °F /  10.5 °C 30.1in /  1018.2hPa West 15.9mph /  25.6km/h 15.9mph /  25.6km/h 97% 0in /  0.0mm
12:39 51.8 °F /  11.0 °C 50.9 °F /  10.5 °C 30.1in /  1018.2hPa West 13.2mph /  21.2km/h 15.9mph /  25.6km/h 97% 0in /  0.0mm
12:44 51.6 °F /  10.9 °C 50.7 °F /  10.4 °C 30.1in /  1018.2hPa WSW 17.4mph /  28.0km/h 19.2mph /  30.9km/h 97% 0in /  0.0mm
12:49 51.6 °F /  10.9 °C 50.7 °F /  10.4 °C 30.1in /  1018.2hPa West 13.9mph /  22.4km/h 19.2mph /  30.9km/h 97% 0in /  0.0mm
12:54 51.6 °F /  10.9 °C 50.7 °F /  10.4 °C 30.1in /  1018.2hPa West 12.5mph /  20.1km/h 19.2mph /  30.9km/h 97% 0in /  0.0mm
12:59 51.6 °F /  10.9 °C 50.5 °F /  10.3 °C 30.1in /  1018.2hPa West 12.5mph /  20.1km/h 19.2mph /  30.9km/h 96% 0in /  0.0mm
13:04 51.6 °F /  10.9 °C 50.5 °F /  10.3 °C 30.1in /  1018.2hPa WSW 10.5mph /  16.9km/h 17.7mph /  28.5km/h 96% 0in /  0.0mm
13:09 51.6 °F /  10.9 °C 50.5 °F /  10.3 °C 30.1in /  1018.2hPa WSW 15.2mph /  24.5km/h 17.7mph /  28.5km/h 96% 0in /  0.0mm
13:14 51.6 °F /  10.9 °C 50.5 °F /  10.3 °C 30.1in /  1018.2hPa WSW 12.8mph /  20.6km/h 17.7mph /  28.5km/h 96% 0in /  0.0mm
13:19 51.8 °F /  11.0 °C 50.7 °F /  10.4 °C 30.1in /  1018.2hPa WSW 12.8mph /  20.6km/h 16.6mph /  26.7km/h 96% 0in /  0.0mm
13:24 52 °F /  11.1 °C 50.7 °F /  10.4 °C 30.1in /  1018.2hPa West 15.2mph /  24.5km/h 17.7mph /  28.5km/h 96% 0in /  0.0mm
13:29 52 °F /  11.1 °C 50.7 °F /  10.4 °C 30.1in /  1018.2hPa WSW 18.6mph /  29.9km/h 18.6mph /  29.9km/h 96% 0in /  0.0mm
13:34 52.2 °F /  11.2 °C 51.1 °F /  10.6 °C 30.1in /  1018.2hPa West 14.8mph /  23.8km/h 18.6mph /  29.9km/h 96% 0in /  0.0mm
13:39 52.2 °F /  11.2 °C 51.1 °F /  10.6 °C 30in /  1016.8hPa WSW 15.2mph /  24.5km/h 17.7mph /  28.5km/h 96% 0in /  0.0mm
13:44 52.3 °F /  11.3 °C 51.3 °F /  10.7 °C 30in /  1016.8hPa West 14.8mph /  23.8km/h 17.7mph /  28.5km/h 96% 0in /  0.0mm
13:49 52.3 °F /  11.3 °C 51.3 °F /  10.7 °C 30in /  1016.8hPa West 13.6mph /  21.9km/h 19mph /  30.6km/h 96% 0in /  0.0mm
13:54 52.3 °F /  11.3 °C 51.3 °F /  10.7 °C 30in /  1016.1hPa WSW 12.5mph /  20.1km/h 19mph /  30.6km/h 96% 0in /  0.0mm
13:59 52.5 °F /  11.4 °C 51.4 °F /  10.8 °C 30in /  1016.1hPa WSW 12.8mph /  20.6km/h 18.8mph /  30.2km/h 96% 0in /  0.0mm
14:04 52.5 °F /  11.4 °C 51.4 °F /  10.8 °C 30in /  1016.1hPa WSW 15.2mph /  24.5km/h 17.7mph /  28.5km/h 96% 0in /  0.0mm
14:09 52.5 °F /  11.4 °C 51.4 °F /  10.8 °C 30in /  1016.8hPa West 10.3mph /  16.6km/h 17.4mph /  28.0km/h 96% 0in /  0.0mm
14:14 52.9 °F /  11.6 °C 51.6 °F /  10.9 °C 30in /  1016.8hPa WSW 10.1mph /  16.3km/h 17.4mph /  28.0km/h 96% 0in /  0.0mm
14:19 53.1 °F /  11.7 °C 52 °F /  11.1 °C 30in /  1016.8hPa WSW 12.5mph /  20.1km/h 17.7mph /  28.5km/h 96% 0in /  0.0mm
14:24 53.2 °F /  11.8 °C 51.8 °F /  11.0 °C 30in /  1016.8hPa WSW 14.3mph /  23.0km/h 18.6mph /  29.9km/h 95% 0in /  0.0mm
14:29 53.2 °F /  11.8 °C 51.8 °F /  11.0 °C 30in /  1016.8hPa WSW 11.4mph /  18.3km/h 18.6mph /  29.9km/h 95% 0in /  0.0mm
14:34 53.2 °F /  11.8 °C 51.8 °F /  11.0 °C 30in /  1016.8hPa SSW 18.6mph /  29.9km/h 19.7mph /  31.7km/h 95% 0in /  0.0mm
14:39 53.2 °F /  11.8 °C 51.8 °F /  11.0 °C 30in /  1016.8hPa WSW 17.7mph /  28.5km/h 19.7mph /  31.7km/h 95% 0in /  0.0mm
14:44 53.2 °F /  11.8 °C 51.8 °F /  11.0 °C 30in /  1016.8hPa WSW 16.1mph /  25.9km/h 19.7mph /  31.7km/h 95% 0in /  0.0mm
14:49 53.2 °F /  11.8 °C 52 °F /  11.1 °C 30in /  1016.8hPa SW 9.4mph /  15.1km/h 17.7mph /  28.5km/h 95% 0in /  0.0mm
14:54 53.2 °F /  11.8 °C 52 °F /  11.1 °C 30in /  1016.8hPa WSW 11.2mph /  18.0km/h 16.1mph /  25.9km/h 95% 0in /  0.0mm
15:00 53.2 °F /  11.8 °C 52 °F /  11.1 °C 30in /  1016.8hPa WSW 13mph /  20.9km/h 15.4mph /  24.8km/h 95% 0in /  0.0mm
15:05 53.2 °F /  11.8 °C 52 °F /  11.1 °C 30in /  1016.8hPa West 17mph /  27.4km/h 19.9mph /  32.0km/h 95% 0in /  0.0mm
15:10 53.2 °F /  11.8 °C 52 °F /  11.1 °C 30in /  1016.8hPa WSW 12.3mph /  19.8km/h 19.9mph /  32.0km/h 95% 0in /  0.0mm
15:15 53.2 °F /  11.8 °C 52 °F /  11.1 °C 30in /  1016.8hPa WSW 13.2mph /  21.2km/h 17.2mph /  27.7km/h 95% 0in /  0.0mm
15:20 53.2 °F /  11.8 °C 52 °F /  11.1 °C 30in /  1016.8hPa WSW 8.5mph /  13.7km/h 14.8mph /  23.8km/h 95% 0in /  0.0mm
15:25 53.4 °F /  11.9 °C 52.2 °F /  11.2 °C 30in /  1016.8hPa WSW 9.6mph /  15.4km/h 13.2mph /  21.2km/h 95% 0in /  0.0mm
15:30 53.8 °F /  12.1 °C 52.3 °F /  11.3 °C 30in /  1016.8hPa WSW 10.7mph /  17.2km/h 15.2mph /  24.5km/h 95% 0in /  0.0mm
15:35 54 °F /  12.2 °C 52.5 °F /  11.4 °C 30in /  1016.8hPa West 8.1mph /  13.0km/h 15.4mph /  24.8km/h 95% 0in /  0.0mm
15:40 54 °F /  12.2 °C 52.5 °F /  11.4 °C 30in /  1016.8hPa WSW 13.2mph /  21.2km/h 15.4mph /  24.8km/h 95% 0in /  0.0mm
15:45 54 °F /  12.2 °C 52.5 °F /  11.4 °C 30in /  1016.8hPa West 11mph /  17.7km/h 17mph /  27.4km/h 95% 0in /  0.0mm
15:50 54 °F /  12.2 °C 52.5 °F /  11.4 °C 30in /  1016.8hPa WSW 14.5mph /  23.3km/h 17mph /  27.4km/h 95% 0in /  0.0mm
15:55 53.8 °F /  12.1 °C 52.3 °F /  11.3 °C 30in /  1016.8hPa West 8.1mph /  13.0km/h 15.4mph /  24.8km/h 95% 0in /  0.0mm
16:00 53.2 °F /  11.8 °C 52 °F /  11.1 °C 30in /  1016.8hPa West 10.1mph /  16.3km/h 19mph /  30.6km/h 95% 0in /  0.0mm
16:05 53.2 °F /  11.8 °C 52 °F /  11.1 °C 30in /  1016.8hPa WSW 10.5mph /  16.9km/h 19mph /  30.6km/h 95% 0in /  0.0mm
16:10 53.2 °F /  11.8 °C 51.8 °F /  11.0 °C 30in /  1016.8hPa WSW 12.8mph /  20.6km/h 17.2mph /  27.7km/h 95% 0in /  0.0mm
16:15 53.2 °F /  11.8 °C 51.8 °F /  11.0 °C 30in /  1016.8hPa West 12.8mph /  20.6km/h 17.7mph /  28.5km/h 95% 0in /  0.0mm
16:20 53.2 °F /  11.8 °C 51.8 °F /  11.0 °C 30in /  1016.8hPa WSW 10.1mph /  16.3km/h 17.7mph /  28.5km/h 95% 0in /  0.0mm
16:25 53.2 °F /  11.8 °C 52 °F /  11.1 °C 30in /  1016.8hPa WSW 12.8mph /  20.6km/h 15.7mph /  25.3km/h 95% 0in /  0.0mm
16:30 53.2 °F /  11.8 °C 52 °F /  11.1 °C 30in /  1016.8hPa West 13.2mph /  21.2km/h 15.4mph /  24.8km/h 95% 0in /  0.0mm
16:35 53.2 °F /  11.8 °C 52 °F /  11.1 °C 30in /  1016.8hPa West 15.2mph /  24.5km/h 17.2mph /  27.7km/h 95% 0in /  0.0mm
16:40 53.2 °F /  11.8 °C 52 °F /  11.1 °C 30in /  1016.8hPa West 11mph /  17.7km/h 17.2mph /  27.7km/h 95% 0in /  0.0mm
16:45 53.2 °F /  11.8 °C 52 °F /  11.1 °C 30in /  1016.8hPa WSW 15.2mph /  24.5km/h 16.6mph /  26.7km/h 95% 0in /  0.0mm
16:50 53.1 °F /  11.7 °C 52 °F /  11.1 °C 30in /  1016.8hPa West 21.3mph /  34.3km/h 23mph /  37.0km/h 96% 0in /  0.0mm
16:55 52.9 °F /  11.6 °C 51.4 °F /  10.8 °C 30in /  1016.8hPa West 17.7mph /  28.5km/h 23mph /  37.0km/h 95% 0in /  0.0mm
17:00 52.5 °F /  11.4 °C 51.3 °F /  10.7 °C 30in /  1016.8hPa West 23.5mph /  37.8km/h 23.5mph /  37.8km/h 95% 0in /  0.0mm
17:05 52.5 °F /  11.4 °C 51.3 °F /  10.7 °C 30in /  1016.8hPa WSW 19mph /  30.6km/h 23.7mph /  38.1km/h 95% 0in /  0.0mm
17:10 52.3 °F /  11.3 °C 51.3 °F /  10.7 °C 30in /  1016.8hPa West 12.5mph /  20.1km/h 23.7mph /  38.1km/h 96% 0in /  0.0mm
17:15 52.2 °F /  11.2 °C 51.1 °F /  10.6 °C 30in /  1016.8hPa West 13.4mph /  21.6km/h 23.3mph /  37.5km/h 96% 0in /  0.0mm
17:20 52.2 °F /  11.2 °C 51.1 °F /  10.6 °C 30in /  1016.8hPa West 16.1mph /  25.9km/h 18.6mph /  29.9km/h 96% 0in /  0.0mm
17:25 52 °F /  11.1 °C 50.7 °F /  10.4 °C 30in /  1016.8hPa West 12.5mph /  20.1km/h 17.7mph /  28.5km/h 96% 0in /  0.0mm
17:30 52 °F /  11.1 °C 50.7 °F /  10.4 °C 30in /  1016.8hPa WSW 13.4mph /  21.6km/h 16.1mph /  25.9km/h 96% 0in /  0.0mm
17:35 51.8 °F /  11.0 °C 50.7 °F /  10.4 °C 30in /  1016.8hPa WSW 12.5mph /  20.1km/h 16.1mph /  25.9km/h 96% 0in /  0.0mm
17:40 51.8 °F /  11.0 °C 50.7 °F /  10.4 °C 30in /  1016.8hPa WSW 10.5mph /  16.9km/h 16.1mph /  25.9km/h 96% 0in /  0.0mm
17:45 51.8 °F /  11.0 °C 50.7 °F /  10.4 °C 30in /  1016.8hPa WSW 10.1mph /  16.3km/h 15.4mph /  24.8km/h 96% 0in /  0.0mm
17:50 51.8 °F /  11.0 °C 50.7 °F /  10.4 °C 30in /  1016.8hPa WSW 10.3mph /  16.6km/h 13mph /  20.9km/h 96% 0in /  0.0mm
17:55 51.8 °F /  11.0 °C 50.7 °F /  10.4 °C 30in /  1016.8hPa WSW 10.7mph /  17.2km/h 13.6mph /  21.9km/h 96% 0in /  0.0mm
18:00 51.6 °F /  10.9 °C 50.5 °F /  10.3 °C 30in /  1016.8hPa WSW 12.8mph /  20.6km/h 15.4mph /  24.8km/h 96% 0in /  0.0mm
18:05 51.6 °F /  10.9 °C 50.5 °F /  10.3 °C 30in /  1016.8hPa West 17.4mph /  28.0km/h 17.4mph /  28.0km/h 96% 0in /  0.0mm
18:10 51.8 °F /  11.0 °C 50.7 °F /  10.4 °C 30in /  1016.8hPa WSW 14.8mph /  23.8km/h 17.4mph /  28.0km/h 96% 0in /  0.0mm
18:15 51.8 °F /  11.0 °C 50.7 °F /  10.4 °C 30in /  1016.8hPa WSW 11mph /  17.7km/h 17.4mph /  28.0km/h 96% 0in /  0.0mm
18:20 51.8 °F /  11.0 °C 50.7 °F /  10.4 °C 30in /  1016.8hPa West 15.7mph /  25.3km/h 17.4mph /  28.0km/h 96% 0in /  0.0mm
18:25 51.8 °F /  11.0 °C 50.7 °F /  10.4 °C 30in /  1016.8hPa WSW 13.2mph /  21.2km/h 18.1mph /  29.1km/h 96% 0in /  0.0mm
18:30 51.8 °F /  11.0 °C 50.7 °F /  10.4 °C 30in /  1016.8hPa West 13.9mph /  22.4km/h 18.1mph /  29.1km/h 96% 0in /  0.0mm
18:35 51.8 °F /  11.0 °C 50.7 °F /  10.4 °C 30in /  1016.8hPa WSW 10.7mph /  17.2km/h 18.6mph /  29.9km/h 96% 0in /  0.0mm
18:40 51.6 °F /  10.9 °C 50.5 °F /  10.3 °C 30in /  1016.8hPa WSW 11mph /  17.7km/h 18.6mph /  29.9km/h 96% 0in /  0.0mm
18:45 51.6 °F /  10.9 °C 50.5 °F /  10.3 °C 30in /  1016.8hPa WSW 10.1mph /  16.3km/h 15.2mph /  24.5km/h 96% 0in /  0.0mm
18:50 51.4 °F /  10.8 °C 50.4 °F /  10.2 °C 30in /  1016.8hPa WSW 14.1mph /  22.7km/h 17.7mph /  28.5km/h 96% 0in /  0.0mm
18:55 51.4 °F /  10.8 °C 50.4 °F /  10.2 °C 30in /  1016.8hPa WSW 14.3mph /  23.0km/h 17.7mph /  28.5km/h 96% 0in /  0.0mm
19:00 51.3 °F /  10.7 °C 50.2 °F /  10.1 °C 30in /  1016.8hPa West 14.3mph /  23.0km/h 17.7mph /  28.5km/h 96% 0in /  0.0mm
19:05 51.3 °F /  10.7 °C 50.2 °F /  10.1 °C 30in /  1016.8hPa WSW 12.5mph /  20.1km/h 17.9mph /  28.8km/h 96% 0in /  0.0mm
19:10 51.3 °F /  10.7 °C 50.2 °F /  10.1 °C 30in /  1016.8hPa WSW 14.8mph /  23.8km/h 17.9mph /  28.8km/h 96% 0in /  0.0mm
19:15 51.1 °F /  10.6 °C 50 °F /  10.0 °C 30in /  1016.8hPa WSW 15.2mph /  24.5km/h 17.4mph /  28.0km/h 96% 0in /  0.0mm
19:20 50.9 °F /  10.5 °C 49.8 °F /  9.9 °C 30in /  1016.8hPa WSW 14.5mph /  23.3km/h 16.6mph /  26.7km/h 96% 0in /  0.0mm
19:25 50.9 °F /  10.5 °C 49.8 °F /  9.9 °C 30in /  1016.8hPa WSW 18.6mph /  29.9km/h 18.6mph /  29.9km/h 96% 0in /  0.0mm
19:30 50.9 °F /  10.5 °C 49.8 °F /  9.9 °C 30in /  1016.8hPa WSW 12.8mph /  20.6km/h 18.6mph /  29.9km/h 96% 0in /  0.0mm
19:35 50.7 °F /  10.4 °C 49.6 °F /  9.8 °C 30in /  1016.8hPa WSW 11mph /  17.7km/h 17.7mph /  28.5km/h 96% 0in /  0.0mm
19:40 50.7 °F /  10.4 °C 49.6 °F /  9.8 °C 30in /  1016.8hPa WSW 12.8mph /  20.6km/h 17.7mph /  28.5km/h 96% 0in /  0.0mm
19:45 50.9 °F /  10.5 °C 50.2 °F /  10.1 °C 30in /  1016.8hPa WSW 15.2mph /  24.5km/h 18.6mph /  29.9km/h 97% 0in /  0.0mm
19:50 50.9 °F /  10.5 °C 50.2 °F /  10.1 °C 30in /  1016.8hPa WSW 11mph /  17.7km/h 18.6mph /  29.9km/h 97% 0in /  0.0mm
19:55 50.7 °F /  10.4 °C 49.8 °F /  9.9 °C 30in /  1016.1hPa WSW 12.1mph /  19.5km/h 18.6mph /  29.9km/h 97% 0in /  0.0mm
20:00 50.7 °F /  10.4 °C 49.8 °F /  9.9 °C 30in /  1016.1hPa WSW 12.8mph /  20.6km/h 18.6mph /  29.9km/h 97% 0in /  0.0mm
20:05 50.7 °F /  10.4 °C 49.8 °F /  9.9 °C 30in /  1016.1hPa West 14.8mph /  23.8km/h 18.8mph /  30.2km/h 97% 0in /  0.0mm
20:10 50.7 °F /  10.4 °C 49.8 °F /  9.9 °C 30in /  1016.8hPa WSW 10.7mph /  17.2km/h 18.8mph /  30.2km/h 97% 0in /  0.0mm
20:15 50.7 °F /  10.4 °C 49.8 °F /  9.9 °C 30in /  1016.8hPa West 12.5mph /  20.1km/h 17.7mph /  28.5km/h 97% 0in /  0.0mm
20:20 50.7 °F /  10.4 °C 49.8 °F /  9.9 °C 30in /  1016.8hPa WSW 9.8mph /  15.8km/h 15.4mph /  24.8km/h 97% 0in /  0.0mm
20:25 50.7 °F /  10.4 °C 49.8 °F /  9.9 °C 30.1in /  1018.2hPa WSW 11mph /  17.7km/h 15.4mph /  24.8km/h 97% 0in /  0.0mm
20:30 50.7 °F /  10.4 °C 49.8 °F /  9.9 °C 30.1in /  1018.2hPa West 13mph /  20.9km/h 17mph /  27.4km/h 97% 0in /  0.0mm
20:35 50.9 °F /  10.5 °C 50.2 °F /  10.1 °C 30.1in /  1018.2hPa WSW 11.4mph /  18.3km/h 17mph /  27.4km/h 97% 0in /  0.0mm
20:40 50.9 °F /  10.5 °C 50.2 °F /  10.1 °C 30in /  1016.1hPa WSW 13mph /  20.9km/h 16.8mph /  27.0km/h 97% 0in /  0.0mm
20:45 50.9 °F /  10.5 °C 50.2 °F /  10.1 °C 30in /  1016.1hPa West 16.6mph /  26.7km/h 16.6mph /  26.7km/h 97% 0in /  0.0mm
20:50 50.9 °F /  10.5 °C 50.2 °F /  10.1 °C 30in /  1016.1hPa West 11mph /  17.7km/h 19.9mph /  32.0km/h 97% 0in /  0.0mm
20:55 50.9 °F /  10.5 °C 50.2 °F /  10.1 °C 30in /  1016.8hPa WSW 12.8mph /  20.6km/h 19.9mph /  32.0km/h 97% 0in /  0.0mm
21:00 50.9 °F /  10.5 °C 50.2 °F /  10.1 °C 30in /  1016.8hPa West 11mph /  17.7km/h 17.7mph /  28.5km/h 97% 0in /  0.0mm
21:05 50.9 °F /  10.5 °C 50.2 °F /  10.1 °C 30in /  1016.8hPa WSW 19.5mph /  31.4km/h 19.5mph /  31.4km/h 97% 0in /  0.0mm
21:10 50.9 °F /  10.5 °C 50.2 °F /  10.1 °C 30in /  1016.1hPa WSW 13mph /  20.9km/h 19.5mph /  31.4km/h 97% 0in /  0.0mm
21:15 50.9 °F /  10.5 °C 50.2 °F /  10.1 °C 30in /  1016.1hPa WSW 15.2mph /  24.5km/h 19.5mph /  31.4km/h 97% 0in /  0.0mm
21:20 50.9 °F /  10.5 °C 50.2 °F /  10.1 °C 30in /  1016.1hPa West 13.6mph /  21.9km/h 15.4mph /  24.8km/h 97% 0in /  0.0mm
21:25 50.9 °F /  10.5 °C 50.2 °F /  10.1 °C 30in /  1016.1hPa WSW 13.2mph /  21.2km/h 17.9mph /  28.8km/h 97% 0in /  0.0mm
21:30 50.9 °F /  10.5 °C 50.2 °F /  10.1 °C 30in /  1016.1hPa WSW 11mph /  17.7km/h 17.9mph /  28.8km/h 97% 0in /  0.0mm
21:35 50.9 °F /  10.5 °C 50.2 °F /  10.1 °C 30in /  1016.1hPa West 11mph /  17.7km/h 17.7mph /  28.5km/h 97% 0in /  0.0mm
21:40 50.9 °F /  10.5 °C 50.2 °F /  10.1 °C 30in /  1016.8hPa West 14.5mph /  23.3km/h 17.7mph /  28.5km/h 97% 0in /  0.0mm
21:45 50.9 °F /  10.5 °C 50.2 °F /  10.1 °C 30in /  1016.8hPa West 9.6mph /  15.4km/h 15.4mph /  24.8km/h 97% 0in /  0.0mm
21:50 50.9 °F /  10.5 °C 50.2 °F /  10.1 °C 30in /  1016.8hPa SW 8.7mph /  14.0km/h 15.4mph /  24.8km/h 97% 0in /  0.0mm
21:55 50.9 °F /  10.5 °C 50.2 °F /  10.1 °C 30in /  1016.8hPa West 10.1mph /  16.3km/h 18.1mph /  29.1km/h 97% 0in /  0.0mm
22:00 50.9 °F /  10.5 °C 50.2 °F /  10.1 °C 30in /  1016.8hPa West 16.8mph /  27.0km/h 18.1mph /  29.1km/h 97% 0in /  0.0mm
22:05 50.9 °F /  10.5 °C 50.2 °F /  10.1 °C 30in /  1016.8hPa WSW 10.7mph /  17.2km/h 17.4mph /  28.0km/h 97% 0in /  0.0mm
22:10 50.9 °F /  10.5 °C 50.2 °F /  10.1 °C 30in /  1016.8hPa WSW 10.3mph /  16.6km/h 17.7mph /  28.5km/h 97% 0in /  0.0mm
22:15 50.9 °F /  10.5 °C 50.2 °F /  10.1 °C 30in /  1016.8hPa WSW 12.1mph /  19.5km/h 17.7mph /  28.5km/h 97% 0in /  0.0mm
22:20 50.7 °F /  10.4 °C 49.8 °F /  9.9 °C 30in /  1016.8hPa West 9.8mph /  15.8km/h 14.5mph /  23.3km/h 97% 0in /  0.0mm
22:25 50.7 °F /  10.4 °C 49.8 °F /  9.9 °C 30in /  1016.8hPa WSW 10.3mph /  16.6km/h 14.5mph /  23.3km/h 97% 0in /  0.0mm
22:30 50.7 °F /  10.4 °C 49.8 °F /  9.9 °C 30in /  1016.8hPa West 10.7mph /  17.2km/h 15.4mph /  24.8km/h 97% 0in /  0.0mm
22:35 50.7 °F /  10.4 °C 49.8 °F /  9.9 °C 30in /  1016.8hPa West 10.1mph /  16.3km/h 15.9mph /  25.6km/h 97% 0in /  0.0mm
22:40 50.7 °F /  10.4 °C 49.8 °F /  9.9 °C 30in /  1016.8hPa West 12.8mph /  20.6km/h 15.9mph /  25.6km/h 97% 0in /  0.0mm
22:45 50.7 °F /  10.4 °C 49.8 °F /  9.9 °C 30in /  1016.8hPa WSW 12.8mph /  20.6km/h 14.3mph /  23.0km/h 97% 0in /  0.0mm
22:50 50.5 °F /  10.3 °C 49.6 °F /  9.8 °C 30in /  1016.8hPa WSW 12.8mph /  20.6km/h 13.4mph /  21.6km/h 97% 0in /  0.0mm
22:55 50.5 °F /  10.3 °C 49.6 °F /  9.8 °C 30in /  1016.1hPa West 13mph /  20.9km/h 15.4mph /  24.8km/h 97% 0in /  0.0mm
23:00 50.5 °F /  10.3 °C 49.6 °F /  9.8 °C 30in /  1016.1hPa West 10.5mph /  16.9km/h 15.4mph /  24.8km/h 97% 0in /  0.0mm
23:05 50.5 °F /  10.3 °C 49.6 °F /  9.8 °C 30in /  1016.1hPa WSW 12.5mph /  20.1km/h 15.2mph /  24.5km/h 97% 0in /  0.0mm
23:10 50.5 °F /  10.3 °C 49.6 °F /  9.8 °C 30in /  1016.8hPa West 6mph /  9.7km/h 15.2mph /  24.5km/h 97% 0in /  0.0mm
23:15 50.7 °F /  10.4 °C 49.8 °F /  9.9 °C 30in /  1016.8hPa West 12.5mph /  20.1km/h 15.4mph /  24.8km/h 97% 0in /  0.0mm
23:20 50.7 °F /  10.4 °C 49.8 °F /  9.9 °C 30in /  1016.8hPa West 13mph /  20.9km/h 15.7mph /  25.3km/h 97% 0in /  0.0mm
23:25 50.7 °F /  10.4 °C 49.8 °F /  9.9 °C 30in /  1016.8hPa WSW 11mph /  17.7km/h 15.7mph /  25.3km/h 97% 0in /  0.0mm
23:30 50.7 °F /  10.4 °C 49.8 °F /  9.9 °C 30in /  1016.8hPa WSW 11.4mph /  18.3km/h 15.7mph /  25.3km/h 97% 0in /  0.0mm
23:36 50.7 °F /  10.4 °C 49.8 °F /  9.9 °C 30in /  1016.8hPa WSW 10.3mph /  16.6km/h 14.8mph /  23.8km/h 97% 0in /  0.0mm
23:41 50.7 °F /  10.4 °C 49.8 °F /  9.9 °C 30in /  1016.8hPa West 11mph /  17.7km/h 14.8mph /  23.8km/h 97% 0in /  0.0mm
23:46 50.7 °F /  10.4 °C 49.8 °F /  9.9 °C 30in /  1016.8hPa West 15.4mph /  24.8km/h 15.4mph /  24.8km/h 97% 0in /  0.0mm
23:51 50.7 °F /  10.4 °C 49.8 °F /  9.9 °C 30in /  1016.8hPa WSW 7.4mph /  11.9km/h 15.4mph /  24.8km/h 97% 0in /  0.0mm
23:56 50.7 °F /  10.4 °C 49.8 °F /  9.9 °C 30in /  1016.1hPa West 8.7mph /  14.0km/h 16.1mph /  25.9km/h 97% 0in /  0.0mm
Données Historique de Météo Turbie

Mise a jour : 20/05/2018 16:14:12
Généré par Cumulus 1.9.4 (1099)